Time;durP1;ratioP1;P1;durP2;ratioP2;P2;SDS_P1;SDS_P2;PMS_P1;PMS_P2;Temp;Humidity;BMP_temperature;BMP_pressure;BME280_temperature;BME280_humidity;BME280_pressure;Samples;Min_cycle;Max_cycle;Signal;HPM_P1;HPM_P2
2022/02/21 00:01:48;;;;;;;;;;;18.30;55.20;;;;;;4985430;28;20287;-58
2022/02/21 00:04:14;;;;;;;;;;;18.40;55.20;;;;;;4985701;28;20053;-57
2022/02/21 00:06:43;;;;;;;;;;;18.30;55.20;;;;;;4991321;28;19918;-55
2022/02/21 00:09:11;;;;;;;;;;;18.30;55.20;;;;;;4980276;28;19929;-56
2022/02/21 00:11:37;;;;;;;;;;;18.30;55.10;;;;;;4988334;28;19964;-56
2022/02/21 00:14:02;;;;;;;;;;;18.30;55.10;;;;;;4980870;28;20015;-55
2022/02/21 00:16:27;;;;;;;;;;;18.40;55.10;;;;;;4989542;28;20097;-55
2022/02/21 00:18:53;;;;;;;;;;;18.30;55.00;;;;;;4984292;28;19918;-54
2022/02/21 00:21:18;;;;;;;;;;;18.40;55.10;;;;;;4989406;28;19933;-59
2022/02/21 00:23:44;;;;;;;;;;;18.30;55.10;;;;;;4984183;28;19970;-54
2022/02/21 00:26:09;;;;;;;;;;;18.30;55.20;;;;;;4983110;28;19918;-53
2022/02/21 00:28:35;;;;;;;;;;;18.30;55.20;;;;;;4984713;28;19914;-55
2022/02/21 00:31:00;;;;;;;;;;;18.30;55.00;;;;;;4985553;28;19960;-54
2022/02/21 00:33:26;;;;;;;;;;;18.30;55.00;;;;;;4985265;28;19921;-55
2022/02/21 00:35:51;;;;;;;;;;;18.30;55.00;;;;;;4987672;28;19914;-58
2022/02/21 00:38:17;;;;;;;;;;;18.30;55.00;;;;;;4989110;28;19914;-55
2022/02/21 00:40:42;;;;;;;;;;;18.30;55.00;;;;;;4985250;28;20364;-54
2022/02/21 00:43:08;;;;;;;;;;;18.30;54.90;;;;;;4969954;28;19928;-55
2022/02/21 00:45:33;;;;;;;;;;;18.30;55.00;;;;;;4984549;28;19921;-57
2022/02/21 00:47:58;;;;;;;;;;;18.30;55.00;;;;;;4989938;28;20595;-56
2022/02/21 00:50:24;;;;;;;;;;;18.30;54.90;;;;;;4984553;28;19914;-55
2022/02/21 00:52:49;;;;;;;;;;;18.30;55.00;;;;;;4990528;28;19914;-58
2022/02/21 00:55:15;;;;;;;;;;;18.30;55.00;;;;;;4984984;28;19925;-57
2022/02/21 00:57:40;;;;;;;;;;;18.30;55.00;;;;;;4954817;28;19918;-57
2022/02/21 01:00:07;;;;;;;;;;;18.30;54.90;;;;;;4984184;28;19940;-58
2022/02/21 01:02:33;;;;;;;;;;;18.30;55.00;;;;;;4967550;28;19979;-58
2022/02/21 01:04:59;;;;;;;;;;;18.30;55.00;;;;;;4984941;28;20399;-58
2022/02/21 01:07:24;;;;;;;;;;;18.30;55.00;;;;;;4985884;28;20004;-59
2022/02/21 01:09:49;;;;;;;;;;;18.20;55.00;;;;;;4984363;28;19929;-56
2022/02/21 01:12:15;;;;;;;;;;;18.20;54.90;;;;;;4988920;28;19914;-56
2022/02/21 01:14:41;;;;;;;;;;;18.30;55.00;;;;;;4984817;28;19945;-59
2022/02/21 01:17:06;;;;;;;;;;;18.30;54.90;;;;;;4986008;28;20399;-58
2022/02/21 01:19:31;;;;;;;;;;;18.30;54.80;;;;;;4983579;28;19914;-59
2022/02/21 01:21:57;;;;;;;;;;;18.30;54.80;;;;;;4986905;28;20335;-56
2022/02/21 01:24:22;;;;;;;;;;;18.30;54.80;;;;;;4984423;28;19920;-57
2022/02/21 01:26:48;;;;;;;;;;;18.20;54.80;;;;;;4967182;28;19921;-59
2022/02/21 01:29:14;;;;;;;;;;;18.30;54.90;;;;;;4984806;28;19914;-58
2022/02/21 01:31:40;;;;;;;;;;;18.30;54.80;;;;;;4985553;28;19986;-57
2022/02/21 01:34:05;;;;;;;;;;;18.30;54.80;;;;;;4984560;28;19926;-54
2022/02/21 01:36:30;;;;;;;;;;;18.30;54.80;;;;;;4984323;28;19914;-57
2022/02/21 01:38:56;;;;;;;;;;;18.30;54.70;;;;;;4983949;28;20398;-55
2022/02/21 01:41:21;;;;;;;;;;;18.30;54.80;;;;;;4984539;28;19914;-55
2022/02/21 01:43:47;;;;;;;;;;;18.30;54.80;;;;;;4989099;28;19918;-55
2022/02/21 01:46:13;;;;;;;;;;;18.30;54.70;;;;;;4984415;28;20384;-55
2022/02/21 01:48:38;;;;;;;;;;;18.30;54.80;;;;;;4978265;28;19926;-55
2022/02/21 01:51:04;;;;;;;;;;;18.20;54.70;;;;;;4984428;28;19914;-54
2022/02/21 01:53:29;;;;;;;;;;;18.20;54.70;;;;;;4984555;28;20272;-57
2022/02/21 01:55:55;;;;;;;;;;;18.20;54.70;;;;;;4968748;28;19917;-58
2022/02/21 01:58:20;;;;;;;;;;;18.20;54.80;;;;;;4981556;28;19976;-53
2022/02/21 02:00:45;;;;;;;;;;;18.20;54.60;;;;;;4987514;28;19921;-58
2022/02/21 02:03:11;;;;;;;;;;;18.20;54.70;;;;;;4988949;28;20275;-58
2022/02/21 02:05:36;;;;;;;;;;;18.20;54.60;;;;;;4988266;28;20203;-56
2022/02/21 02:08:02;;;;;;;;;;;18.20;54.70;;;;;;4990769;28;19921;-54
2022/02/21 02:10:28;;;;;;;;;;;18.20;54.80;;;;;;4988073;28;19945;-58
2022/02/21 02:12:53;;;;;;;;;;;18.10;54.90;;;;;;4987862;28;19922;-54
2022/02/21 02:15:19;;;;;;;;;;;18.10;54.90;;;;;;4987809;28;19925;-60
2022/02/21 02:17:44;;;;;;;;;;;18.10;54.90;;;;;;4989766;28;19918;-54
2022/02/21 02:20:10;;;;;;;;;;;18.10;54.90;;;;;;4986942;28;19914;-58
2022/02/21 02:22:37;;;;;;;;;;;18.10;55.00;;;;;;4989521;28;19965;-53
2022/02/21 02:25:03;;;;;;;;;;;18.00;55.10;;;;;;4992844;28;19913;-57
2022/02/21 02:27:28;;;;;;;;;;;17.90;55.20;;;;;;4970814;28;19960;-59
2022/02/21 02:29:54;;;;;;;;;;;17.90;55.40;;;;;;4992215;28;19920;-56
2022/02/21 02:32:20;;;;;;;;;;;17.90;55.50;;;;;;4987434;28;20276;-53
2022/02/21 02:34:46;;;;;;;;;;;17.80;55.40;;;;;;4990702;28;19926;-53
2022/02/21 02:37:11;;;;;;;;;;;17.90;55.40;;;;;;4986934;28;19972;-56
2022/02/21 02:39:37;;;;;;;;;;;17.90;55.40;;;;;;4986910;28;19921;-55
2022/02/21 02:42:02;;;;;;;;;;;17.90;55.40;;;;;;4987446;28;19920;-57
2022/02/21 02:44:28;;;;;;;;;;;17.90;55.30;;;;;;4994038;28;19914;-57
2022/02/21 02:46:53;;;;;;;;;;;17.90;55.30;;;;;;4985960;28;19921;-54
2022/02/21 02:49:18;;;;;;;;;;;18.00;55.10;;;;;;4995007;28;19921;-60
2022/02/21 02:51:44;;;;;;;;;;;18.00;55.10;;;;;;4987373;28;20482;-55
2022/02/21 02:54:10;;;;;;;;;;;18.00;55.10;;;;;;4987839;28;19925;-54
2022/02/21 02:56:36;;;;;;;;;;;18.00;55.00;;;;;;4985958;28;20391;-55
2022/02/21 02:59:02;;;;;;;;;;;18.00;54.90;;;;;;4989070;28;19914;-55
2022/02/21 03:01:27;;;;;;;;;;;18.00;54.70;;;;;;4969232;28;19988;-58
2022/02/21 03:03:53;;;;;;;;;;;18.00;54.70;;;;;;4994450;28;19991;-52
2022/02/21 03:06:18;;;;;;;;;;;18.00;54.60;;;;;;4986850;28;19921;-56
2022/02/21 03:08:44;;;;;;;;;;;18.00;54.70;;;;;;4990612;28;19914;-57
2022/02/21 03:11:09;;;;;;;;;;;18.00;54.70;;;;;;4986888;28;19926;-58
2022/02/21 03:13:35;;;;;;;;;;;18.10;54.70;;;;;;4988482;28;19917;-52
2022/02/21 03:16:00;;;;;;;;;;;18.00;54.70;;;;;;4976915;28;20382;-57
2022/02/21 03:18:26;;;;;;;;;;;18.00;54.60;;;;;;4986584;28;19929;-57
2022/02/21 03:20:51;;;;;;;;;;;18.00;54.60;;;;;;4987936;28;19921;-55
2022/02/21 03:23:17;;;;;;;;;;;18.10;54.60;;;;;;4976790;28;20260;-58
2022/02/21 03:25:42;;;;;;;;;;;18.00;54.60;;;;;;4991486;28;19918;-55
2022/02/21 03:28:08;;;;;;;;;;;18.00;54.60;;;;;;4986259;28;20319;-59
2022/02/21 03:30:33;;;;;;;;;;;18.00;54.60;;;;;;4987423;28;19914;-54
2022/02/21 03:33:00;;;;;;;;;;;18.00;54.70;;;;;;4983976;28;19976;-55
2022/02/21 03:35:25;;;;;;;;;;;18.00;54.70;;;;;;4981843;28;20008;-59
2022/02/21 03:37:51;;;;;;;;;;;18.00;54.70;;;;;;4985738;28;20002;-55
2022/02/21 03:40:16;;;;;;;;;;;18.10;54.70;;;;;;4986352;28;20264;-58
2022/02/21 03:42:42;;;;;;;;;;;18.00;54.60;;;;;;4985532;28;19918;-54
2022/02/21 03:45:08;;;;;;;;;;;18.00;54.70;;;;;;4987703;28;19918;-57
2022/02/21 03:47:33;;;;;;;;;;;18.00;54.60;;;;;;4986093;28;19921;-59
2022/02/21 03:49:59;;;;;;;;;;;18.00;54.60;;;;;;4989186;28;19917;-55
2022/02/21 03:52:24;;;;;;;;;;;18.10;54.70;;;;;;4985656;28;19913;-58
2022/02/21 03:54:50;;;;;;;;;;;18.00;54.60;;;;;;4990552;28;20299;-58
2022/02/21 03:57:16;;;;;;;;;;;18.00;54.60;;;;;;4986400;28;19930;-57
2022/02/21 03:59:42;;;;;;;;;;;18.00;54.60;;;;;;4987739;28;19969;-55
2022/02/21 04:02:07;;;;;;;;;;;18.00;54.70;;;;;;4975482;28;20331;-57
2022/02/21 04:04:33;;;;;;;;;;;18.00;54.60;;;;;;4989366;28;19920;-59
2022/02/21 04:06:58;;;;;;;;;;;18.00;54.60;;;;;;4984238;28;19928;-55
2022/02/21 04:09:23;;;;;;;;;;;18.00;54.60;;;;;;4976789;28;19928;-52
2022/02/21 04:11:49;;;;;;;;;;;18.00;54.60;;;;;;4988736;28;19936;-62
2022/02/21 04:14:15;;;;;;;;;;;18.00;54.70;;;;;;4987004;28;19976;-56
2022/02/21 04:16:40;;;;;;;;;;;18.00;54.70;;;;;;4988810;28;19918;-55
2022/02/21 04:19:06;;;;;;;;;;;18.00;54.70;;;;;;4983364;28;19968;-54
2022/02/21 04:21:31;;;;;;;;;;;18.00;54.70;;;;;;4985527;28;19926;-58
2022/02/21 04:23:57;;;;;;;;;;;18.00;54.80;;;;;;4967957;28;19989;-52
2022/02/21 04:26:22;;;;;;;;;;;18.00;54.70;;;;;;4977330;28;19997;-53
2022/02/21 04:28:48;;;;;;;;;;;17.90;54.70;;;;;;4985563;28;19917;-60
2022/02/21 04:31:17;;;;;;;;;;;17.90;54.80;;;;;;4988497;28;20442;-56
2022/02/21 04:33:43;;;;;;;;;;;17.90;54.70;;;;;;4985263;28;19925;-55
2022/02/21 04:36:08;;;;;;;;;;;17.90;54.70;;;;;;4990158;28;20291;-59
2022/02/21 04:38:34;;;;;;;;;;;18.00;54.70;;;;;;4984730;28;19913;-59
2022/02/21 04:40:59;;;;;;;;;;;18.00;54.70;;;;;;4991989;28;20574;-52
2022/02/21 04:43:26;;;;;;;;;;;17.90;54.70;;;;;;4985129;28;19920;-56
2022/02/21 04:45:55;;;;;;;;;;;17.90;54.70;;;;;;4988707;28;19945;-55
2022/02/21 04:48:20;;;;;;;;;;;18.00;54.60;;;;;;4984568;28;19914;-58
2022/02/21 04:50:46;;;;;;;;;;;17.90;54.70;;;;;;4985981;28;19913;-59
2022/02/21 04:53:11;;;;;;;;;;;18.00;54.60;;;;;;4984701;28;19922;-57
2022/02/21 04:55:37;;;;;;;;;;;18.00;55.30;;;;;;4986910;28;20415;-56
2022/02/21 04:58:02;;;;;;;;;;;18.00;54.60;;;;;;4982205;28;20060;-59
2022/02/21 05:00:28;;;;;;;;;;;17.90;54.70;;;;;;4984992;28;19921;-54
2022/02/21 05:02:53;;;;;;;;;;;17.90;54.60;;;;;;4967019;28;19922;-54
2022/02/21 05:05:19;;;;;;;;;;;18.00;54.70;;;;;;4986476;28;20367;-57
2022/02/21 05:07:46;;;;;;;;;;;17.90;54.80;;;;;;4983951;28;19938;-55
2022/02/21 05:10:11;;;;;;;;;;;17.90;54.80;;;;;;4985086;28;19992;-55
2022/02/21 05:12:36;;;;;;;;;;;17.90;54.70;;;;;;4985519;28;20012;-59
2022/02/21 05:15:02;;;;;;;;;;;18.00;54.70;;;;;;4984643;28;20534;-54
2022/02/21 05:17:28;;;;;;;;;;;18.00;54.70;;;;;;4984488;28;19914;-55
2022/02/21 05:19:53;;;;;;;;;;;17.90;54.60;;;;;;4983585;28;19921;-56
2022/02/21 05:22:20;;;;;;;;;;;17.90;54.70;;;;;;4991309;28;19914;-56
2022/02/21 05:24:46;;;;;;;;;;;18.00;54.60;;;;;;4983390;28;19955;-58
2022/02/21 05:27:12;;;;;;;;;;;18.00;54.70;;;;;;4988465;28;19934;-53
2022/02/21 05:29:37;;;;;;;;;;;18.10;54.60;;;;;;4984040;28;19945;-57
2022/02/21 05:32:03;;;;;;;;;;;18.10;54.50;;;;;;4989292;28;19913;-58
2022/02/21 05:34:28;;;;;;;;;;;18.10;54.50;;;;;;4984169;28;19972;-55
2022/02/21 05:36:54;;;;;;;;;;;18.10;54.60;;;;;;4985522;28;19965;-56
2022/02/21 05:39:19;;;;;;;;;;;18.20;54.60;;;;;;4983057;28;20310;-52
2022/02/21 05:41:45;;;;;;;;;;;18.20;54.50;;;;;;4983477;28;20560;-55
2022/02/21 05:44:10;;;;;;;;;;;18.20;54.60;;;;;;4983542;28;19925;-53
2022/02/21 05:46:37;;;;;;;;;;;18.20;54.70;;;;;;4987504;28;19933;-56
2022/02/21 05:49:03;;;;;;;;;;;18.20;54.80;;;;;;4984150;28;19914;-58
2022/02/21 05:51:29;;;;;;;;;;;18.30;54.70;;;;;;4985441;28;20041;-54
2022/02/21 05:53:54;;;;;;;;;;;18.30;54.60;;;;;;4983582;28;20426;-56
2022/02/21 05:56:19;;;;;;;;;;;18.30;54.70;;;;;;4987300;28;19917;-56
2022/02/21 05:58:45;;;;;;;;;;;18.40;54.70;;;;;;4983854;28;19914;-52
2022/02/21 06:01:10;;;;;;;;;;;18.40;54.60;;;;;;4983428;28;19917;-57
2022/02/21 06:03:36;;;;;;;;;;;18.40;54.60;;;;;;4984111;28;19934;-54
2022/02/21 06:06:01;;;;;;;;;;;18.40;54.60;;;;;;4983847;28;20014;-54
2022/02/21 06:08:28;;;;;;;;;;;18.30;54.60;;;;;;4984259;28;20015;-55
2022/02/21 06:10:54;;;;;;;;;;;18.40;54.70;;;;;;4983766;28;19914;-52
2022/02/21 06:13:19;;;;;;;;;;;18.30;54.60;;;;;;4988389;28;20688;-53
2022/02/21 06:15:45;;;;;;;;;;;18.30;54.50;;;;;;4956607;28;20374;-55
2022/02/21 06:18:10;;;;;;;;;;;18.30;54.50;;;;;;4989212;28;19921;-55
2022/02/21 06:20:36;;;;;;;;;;;18.30;54.60;;;;;;4983076;28;20011;-55
2022/02/21 06:23:01;;;;;;;;;;;18.30;54.50;;;;;;4971446;28;19914;-54
2022/02/21 06:25:27;;;;;;;;;;;18.30;55.00;;;;;;4978008;28;19995;-57
2022/02/21 06:27:52;;;;;;;;;;;18.40;55.30;;;;;;4977116;28;20518;-57
2022/02/21 06:30:17;;;;;;;;;;;18.30;55.50;;;;;;4980080;28;19914;-57
2022/02/21 06:32:43;;;;;;;;;;;18.30;55.80;;;;;;4975293;28;19918;-58
2022/02/21 06:35:10;;;;;;;;;;;18.30;55.90;;;;;;4979514;28;19925;-55
2022/02/21 06:37:42;;;;;;;;;;;18.30;55.90;;;;;;4982355;28;19914;-56
2022/02/21 06:40:08;;;;;;;;;;;18.20;55.90;;;;;;4963845;28;19917;-57
2022/02/21 06:42:33;;;;;;;;;;;18.20;55.70;;;;;;4990178;28;19921;-57
2022/02/21 06:44:58;;;;;;;;;;;18.20;55.70;;;;;;4986354;28;19913;-55
2022/02/21 06:47:24;;;;;;;;;;;18.20;55.70;;;;;;4986873;28;19921;-56
2022/02/21 06:49:49;;;;;;;;;;;18.10;55.50;;;;;;4986631;28;19914;-60
2022/02/21 06:52:15;;;;;;;;;;;18.10;55.40;;;;;;4989129;28;20298;-54
2022/02/21 06:54:40;;;;;;;;;;;18.00;55.30;;;;;;4986932;28;19925;-58
2022/02/21 06:57:06;;;;;;;;;;;18.10;55.00;;;;;;4989162;28;19980;-57
2022/02/21 06:59:31;;;;;;;;;;;18.00;54.60;;;;;;4987978;28;19918;-54
2022/02/21 07:01:57;;;;;;;;;;;18.10;54.60;;;;;;4969106;28;19913;-52
2022/02/21 07:04:22;;;;;;;;;;;18.10;54.30;;;;;;4991695;28;19917;-57
2022/02/21 07:06:47;;;;;;;;;;;18.00;54.30;;;;;;4986782;28;19921;-56
2022/02/21 07:09:14;;;;;;;;;;;18.00;54.30;;;;;;4987272;28;20529;-55
2022/02/21 07:11:39;;;;;;;;;;;18.00;54.30;;;;;;4968581;28;19920;-52
2022/02/21 07:14:05;;;;;;;;;;;18.00;54.30;;;;;;4990328;28;20298;-55
2022/02/21 07:16:31;;;;;;;;;;;18.00;54.30;;;;;;4968903;28;19920;-58
2022/02/21 07:18:57;;;;;;;;;;;18.00;54.20;;;;;;4990023;28;20004;-57
2022/02/21 07:21:22;;;;;;;;;;;17.90;54.30;;;;;;4985636;28;20566;-56
2022/02/21 07:23:48;;;;;;;;;;;17.90;54.10;;;;;;4988193;28;19918;-53
2022/02/21 07:26:13;;;;;;;;;;;17.90;54.20;;;;;;4986360;28;19914;-57
2022/02/21 07:28:38;;;;;;;;;;;17.90;54.70;;;;;;4989653;28;20390;-56
2022/02/21 07:31:06;;;;;;;;;;;17.90;54.10;;;;;;4986347;28;20031;-51
2022/02/21 07:33:32;;;;;;;;;;;17.90;54.10;;;;;;4991483;28;20008;-54
2022/02/21 07:35:58;;;;;;;;;;;17.90;54.10;;;;;;4986087;28;20009;-53
2022/02/21 07:38:23;;;;;;;;;;;17.90;54.10;;;;;;4988547;28;19968;-54
2022/02/21 07:40:49;;;;;;;;;;;17.90;54.10;;;;;;4968866;28;19922;-55
2022/02/21 07:43:14;;;;;;;;;;;17.90;54.20;;;;;;4989947;28;19914;-57
2022/02/21 07:45:40;;;;;;;;;;;17.90;54.30;;;;;;4986180;28;20264;-54
2022/02/21 07:48:05;;;;;;;;;;;17.90;54.30;;;;;;4986846;28;19930;-57
2022/02/21 07:50:33;;;;;;;;;;;18.00;54.30;;;;;;4968176;28;19953;-55
2022/02/21 07:52:59;;;;;;;;;;;18.00;54.30;;;;;;4987006;28;20406;-57
2022/02/21 07:55:24;;;;;;;;;;;18.00;54.40;;;;;;4989718;28;19917;-53
2022/02/21 07:57:50;;;;;;;;;;;17.90;54.40;;;;;;4985886;28;19940;-55
2022/02/21 08:00:17;;;;;;;;;;;17.90;54.40;;;;;;4992266;28;19918;-57
2022/02/21 08:02:42;;;;;;;;;;;17.90;54.40;;;;;;4967600;28;19928;-55
2022/02/21 08:05:08;;;;;;;;;;;17.90;54.40;;;;;;4985819;28;19914;-58
2022/02/21 08:07:33;;;;;;;;;;;18.00;55.10;;;;;;4975964;23;19941;-56
2022/02/21 08:09:59;;;;;;;;;;;17.90;54.40;;;;;;4966137;28;19921;-50
2022/02/21 08:12:24;;;;;;;;;;;18.00;54.40;;;;;;4965483;28;19914;-56
2022/02/21 08:14:50;;;;;;;;;;;18.00;54.30;;;;;;4969614;28;20001;-55
2022/02/21 08:17:15;;;;;;;;;;;17.90;54.40;;;;;;4954288;28;19914;-50
2022/02/21 08:19:40;;;;;;;;;;;18.00;54.30;;;;;;4964911;28;20246;-54
2022/02/21 08:22:06;;;;;;;;;;;18.00;54.30;;;;;;4965080;28;20015;-54
2022/02/21 08:24:31;;;;;;;;;;;18.00;54.30;;;;;;4965575;28;19914;-50
2022/02/21 08:26:57;;;;;;;;;;;18.00;54.40;;;;;;4963243;28;19994;-54
2022/02/21 08:29:22;;;;;;;;;;;18.00;54.30;;;;;;4964447;28;19918;-50
2022/02/21 08:31:48;;;;;;;;;;;18.00;54.30;;;;;;4965159;28;20071;-51
2022/02/21 08:34:15;;;;;;;;;;;18.10;54.20;;;;;;4964666;28;20202;-51
2022/02/21 08:36:40;;;;;;;;;;;18.10;54.10;;;;;;4964538;28;20545;-48
2022/02/21 08:39:06;;;;;;;;;;;18.10;54.10;;;;;;4965384;28;19918;-55
2022/02/21 08:41:31;;;;;;;;;;;18.10;54.10;;;;;;4964665;28;20423;-57
2022/02/21 08:43:57;;;;;;;;;;;18.10;54.10;;;;;;4968285;28;19969;-49
2022/02/21 08:46:22;;;;;;;;;;;18.10;54.10;;;;;;4964887;28;19914;-54
2022/02/21 08:48:48;;;;;;;;;;;18.10;54.00;;;;;;4964745;28;19921;-55
2022/02/21 08:51:13;;;;;;;;;;;18.10;54.10;;;;;;4964399;28;19919;-53
2022/02/21 08:53:38;;;;;;;;;;;18.10;54.00;;;;;;4964953;28;19914;-51
2022/02/21 08:56:04;;;;;;;;;;;18.10;54.00;;;;;;4967971;28;20515;-54
2022/02/21 08:58:29;;;;;;;;;;;18.10;54.50;;;;;;4963895;28;19914;-54
2022/02/21 09:00:55;;;;;;;;;;;18.20;53.80;;;;;;4964362;28;19922;-55
2022/02/21 09:03:26;;;;;;;;;;;18.20;53.80;;;;;;4964913;28;19914;-52
2022/02/21 09:05:52;;;;;;;;;;;18.20;53.70;;;;;;4967306;28;20605;-53
2022/02/21 09:08:17;;;;;;;;;;;18.20;53.70;;;;;;4963961;28;20136;-53
2022/02/21 09:10:43;;;;;;;;;;;18.20;53.60;;;;;;4962702;28;20136;-57
2022/02/21 09:13:08;;;;;;;;;;;18.20;53.60;;;;;;4964972;28;19914;-50
2022/02/21 09:15:33;;;;;;;;;;;18.30;53.60;;;;;;4964831;28;20029;-58
2022/02/21 09:18:02;;;;;;;;;;;18.30;53.60;;;;;;4963031;28;20276;-58
2022/02/21 09:20:27;;;;;;;;;;;18.20;53.60;;;;;;4972030;28;19914;-57
2022/02/21 09:22:53;;;;;;;;;;;18.20;53.50;;;;;;4964827;28;19914;-59
2022/02/21 09:25:18;;;;;;;;;;;18.30;53.50;;;;;;4965248;28;19918;-51
2022/02/21 09:27:44;;;;;;;;;;;18.30;53.40;;;;;;4964499;28;19924;-55
2022/02/21 09:30:10;;;;;;;;;;;18.30;53.40;;;;;;4965942;28;20295;-56
2022/02/21 09:32:35;;;;;;;;;;;18.30;53.30;;;;;;4964118;28;19915;-53
2022/02/21 09:35:00;;;;;;;;;;;18.30;53.30;;;;;;4964623;28;19961;-49
2022/02/21 09:37:26;;;;;;;;;;;18.40;53.20;;;;;;4964302;28;19921;-56
2022/02/21 09:39:51;;;;;;;;;;;18.40;53.10;;;;;;4964606;28;19915;-54
2022/02/21 09:42:17;;;;;;;;;;;18.30;53.10;;;;;;4962823;28;19922;-55
2022/02/21 09:44:43;;;;;;;;;;;18.40;53.10;;;;;;4964136;28;20440;-56
2022/02/21 09:47:09;;;;;;;;;;;18.30;53.00;;;;;;4963933;28;19921;-54
2022/02/21 09:49:34;;;;;;;;;;;18.30;53.00;;;;;;4962283;28;20310;-53
2022/02/21 09:52:00;;;;;;;;;;;18.40;53.10;;;;;;4963951;28;19973;-56
2022/02/21 09:54:26;;;;;;;;;;;18.30;53.00;;;;;;4964095;28;20380;-54
2022/02/21 09:56:54;;;;;;;;;;;18.30;53.00;;;;;;4964652;28;19914;-54
2022/02/21 09:59:19;;;;;;;;;;;18.40;53.00;;;;;;4963423;28;19921;-54
2022/02/21 10:01:45;;;;;;;;;;;18.40;53.00;;;;;;4963921;28;19915;-52
2022/02/21 10:04:11;;;;;;;;;;;18.40;52.90;;;;;;4963043;28;19914;-52
2022/02/21 10:06:36;;;;;;;;;;;18.40;53.00;;;;;;4968534;28;19920;-56
2022/02/21 10:09:06;;;;;;;;;;;18.40;52.90;;;;;;4964734;28;20378;-55
2022/02/21 10:11:36;;;;;;;;;;;18.40;53.00;;;;;;4964395;28;20011;-53
2022/02/21 10:14:05;;;;;;;;;;;18.40;52.70;;;;;;4952560;28;20013;-51
2022/02/21 10:16:49;;;;;;;;;;;18.40;52.70;;;;;;4963575;28;20009;-57
2022/02/21 10:19:15;;;;;;;;;;;18.40;52.70;;;;;;4966615;28;19921;-51
2022/02/21 10:21:47;;;;;;;;;;;18.40;52.70;;;;;;4967034;28;19914;-55
2022/02/21 10:24:12;;;;;;;;;;;18.50;52.60;;;;;;4965875;28;19922;-57
2022/02/21 10:26:38;;;;;;;;;;;18.50;52.50;;;;;;4967013;28;19922;-57
2022/02/21 10:29:07;;;;;;;;;;;18.50;52.50;;;;;;4967104;28;20387;-53
2022/02/21 10:31:32;;;;;;;;;;;18.50;52.30;;;;;;4970030;28;20023;-53
2022/02/21 10:33:59;;;;;;;;;;;18.50;52.40;;;;;;4967514;28;19922;-56
2022/02/21 10:36:35;;;;;;;;;;;18.50;52.50;;;;;;4967301;28;19922;-54
2022/02/21 10:39:07;;;;;;;;;;;18.50;52.40;;;;;;4966960;28;20383;-56
2022/02/21 10:41:41;;;;;;;;;;;18.50;52.50;;;;;;4973449;28;19945;-51
2022/02/21 10:44:14;;;;;;;;;;;18.40;52.50;;;;;;4967148;28;19940;-57
2022/02/21 10:46:39;;;;;;;;;;;18.40;52.60;;;;;;4967266;28;20727;-56
2022/02/21 10:49:05;;;;;;;;;;;18.40;52.60;;;;;;4967263;28;19997;-49
2022/02/21 10:51:33;;;;;;;;;;;18.40;52.60;;;;;;4964995;28;19964;-51
2022/02/21 10:53:58;;;;;;;;;;;18.40;52.60;;;;;;4966952;28;19930;-55
2022/02/21 10:56:24;;;;;;;;;;;18.50;52.70;;;;;;4968327;28;20383;-58
2022/02/21 10:58:50;;;;;;;;;;;18.50;52.50;;;;;;4965057;28;19914;-51
2022/02/21 11:01:15;;;;;;;;;;;18.50;52.50;;;;;;4970659;28;19914;-57
2022/02/21 11:03:41;;;;;;;;;;;18.50;52.40;;;;;;4966280;28;19914;-55
2022/02/21 11:06:06;;;;;;;;;;;18.50;52.30;;;;;;4966728;28;20762;-57
2022/02/21 11:08:32;;;;;;;;;;;18.50;52.30;;;;;;4966055;28;19930;-55
2022/02/21 11:11:03;;;;;;;;;;;18.60;52.20;;;;;;4966929;28;19914;-53
2022/02/21 11:13:29;;;;;;;;;;;18.50;52.30;;;;;;4963358;28;19918;-57
2022/02/21 11:15:54;;;;;;;;;;;18.50;52.20;;;;;;4965564;28;19929;-56
2022/02/21 11:18:20;;;;;;;;;;;18.50;52.30;;;;;;4967004;28;19914;-53
2022/02/21 11:20:45;;;;;;;;;;;18.40;52.50;;;;;;4965369;28;20372;-50
2022/02/21 11:23:11;;;;;;;;;;;18.40;52.60;;;;;;4967030;28;19915;-56
2022/02/21 11:25:47;;;;;;;;;;;18.30;52.80;;;;;;4966291;28;19918;-53
2022/02/21 11:28:19;;;;;;;;;;;18.30;52.90;;;;;;4965473;28;20014;-54
2022/02/21 11:30:44;;;;;;;;;;;18.20;53.60;;;;;;4965327;28;19918;-53
2022/02/21 11:33:11;;;;;;;;;;;18.20;53.10;;;;;;4966932;28;19922;-53
2022/02/21 11:35:37;;;;;;;;;;;18.20;53.10;;;;;;4966830;28;20276;-55
2022/02/21 11:38:14;;;;;;;;;;;18.20;53.10;;;;;;4968551;28;19997;-53
2022/02/21 11:40:50;;;;;;;;;;;18.20;53.10;;;;;;4965770;28;19914;-55
2022/02/21 11:43:25;;;;;;;;;;;18.20;53.10;;;;;;4967383;28;20137;-56
2022/02/21 11:45:54;;;;;;;;;;;18.20;53.10;;;;;;4965553;28;20327;-53
2022/02/21 11:48:20;;;;;;;;;;;18.20;53.00;;;;;;4967639;28;19915;-58
2022/02/21 11:50:45;;;;;;;;;;;18.20;53.00;;;;;;4966009;28;19920;-56
2022/02/21 11:53:24;;;;;;;;;;;18.20;53.00;;;;;;4965674;28;19969;-54
2022/02/21 11:55:51;;;;;;;;;;;18.30;52.90;;;;;;4966221;28;20013;-54
2022/02/21 11:58:17;;;;;;;;;;;18.30;52.80;;;;;;4965405;28;19918;-56
2022/02/21 12:00:42;;;;;;;;;;;18.40;52.70;;;;;;4962714;28;19918;-57
2022/02/21 12:03:09;;;;;;;;;;;18.30;52.70;;;;;;4965600;28;19918;-55
2022/02/21 12:05:34;;;;;;;;;;;18.30;52.60;;;;;;4965354;28;19914;-55
2022/02/21 12:08:00;;;;;;;;;;;18.40;52.60;;;;;;4963680;28;19989;-53
2022/02/21 12:10:25;;;;;;;;;;;18.40;52.50;;;;;;4963411;28;19921;-56
2022/02/21 12:12:57;;;;;;;;;;;18.40;52.50;;;;;;4964205;28;20293;-53
2022/02/21 12:15:23;;;;;;;;;;;18.40;52.30;;;;;;4966988;28;19918;-55
2022/02/21 12:17:59;;;;;;;;;;;18.40;52.30;;;;;;4968748;28;19918;-56
2022/02/21 12:20:28;;;;;;;;;;;18.40;52.30;;;;;;4968044;28;20476;-55
2022/02/21 12:23:05;;;;;;;;;;;18.40;52.20;;;;;;4968173;28;19910;-55
2022/02/21 12:25:31;;;;;;;;;;;18.40;52.20;;;;;;4968273;28;19917;-55
2022/02/21 12:28:08;;;;;;;;;;;18.40;52.10;;;;;;4968653;28;19910;-53
2022/02/21 12:30:37;;;;;;;;;;;18.40;52.10;;;;;;4967756;28;19910;-50
2022/02/21 12:33:03;;;;;;;;;;;18.40;52.20;;;;;;4971832;28;19910;-52
2022/02/21 12:35:28;;;;;;;;;;;18.40;52.20;;;;;;4968298;28;19914;-51
2022/02/21 12:37:54;;;;;;;;;;;18.40;52.10;;;;;;4966982;28;19933;-52
2022/02/21 12:40:19;;;;;;;;;;;18.40;52.20;;;;;;4967307;28;19914;-55
2022/02/21 12:42:57;;;;;;;;;;;18.40;52.20;;;;;;4969761;28;19910;-54
2022/02/21 12:45:22;;;;;;;;;;;18.50;52.20;;;;;;4968267;28;20418;-54
2022/02/21 12:47:48;;;;;;;;;;;18.40;52.10;;;;;;4969778;28;19914;-54
2022/02/21 12:50:13;;;;;;;;;;;18.40;52.20;;;;;;4968944;28;20356;-56
2022/02/21 12:52:39;;;;;;;;;;;18.40;52.20;;;;;;4967793;28;19910;-57
2022/02/21 12:55:04;;;;;;;;;;;18.40;52.20;;;;;;4968049;28;19921;-57
2022/02/21 12:57:35;;;;;;;;;;;18.40;52.20;;;;;;4968111;28;19917;-57
2022/02/21 13:00:01;;;;;;;;;;;18.50;52.10;;;;;;4966898;28;19910;-53
2022/02/21 13:02:26;;;;;;;;;;;18.40;52.00;;;;;;4967479;28;19910;-55
2022/02/21 13:04:52;;;;;;;;;;;18.40;52.10;;;;;;4967126;28;20559;-53
2022/02/21 13:07:17;;;;;;;;;;;18.40;52.10;;;;;;4966510;28;19919;-54
2022/02/21 13:09:43;;;;;;;;;;;18.40;52.20;;;;;;4967162;28;20516;-51
2022/02/21 13:12:18;;;;;;;;;;;18.40;52.20;;;;;;4967169;28;19922;-54
2022/02/21 13:14:44;;;;;;;;;;;18.40;52.20;;;;;;4969569;28;19922;-53
2022/02/21 13:17:10;;;;;;;;;;;18.40;52.20;;;;;;4967751;28;20036;-57
2022/02/21 13:19:36;;;;;;;;;;;18.40;52.20;;;;;;4966786;28;19910;-53
2022/02/21 13:22:25;;;;;;;;;;;18.40;52.20;;;;;;4965718;28;19916;-53
2022/02/21 13:24:50;;;;;;;;;;;18.30;52.10;;;;;;4962731;28;20008;-55
2022/02/21 13:27:22;;;;;;;;;;;18.40;52.20;;;;;;4967316;28;19968;-52
2022/02/21 13:29:48;;;;;;;;;;;18.30;52.20;;;;;;4966955;28;19914;-53
2022/02/21 13:32:26;;;;;;;;;;;18.30;52.30;;;;;;4967206;28;19964;-51
2022/02/21 13:34:52;;;;;;;;;;;18.30;52.10;;;;;;4968462;28;19914;-55
2022/02/21 13:37:21;;;;;;;;;;;18.30;52.10;;;;;;4966863;28;19991;-55
2022/02/21 13:39:51;;;;;;;;;;;18.30;52.20;;;;;;4967050;28;19914;-54
2022/02/21 13:42:16;;;;;;;;;;;18.30;52.30;;;;;;4967369;28;19917;-52
2022/02/21 13:44:42;;;;;;;;;;;18.20;52.30;;;;;;4966184;28;19910;-57
2022/02/21 13:47:08;;;;;;;;;;;18.20;52.40;;;;;;4967171;28;19914;-56
2022/02/21 13:49:34;;;;;;;;;;;18.30;52.50;;;;;;4965789;28;19973;-53
2022/02/21 13:52:06;;;;;;;;;;;18.30;52.50;;;;;;4971316;28;19911;-54
2022/02/21 13:54:31;;;;;;;;;;;18.20;52.50;;;;;;4974900;28;19917;-58
2022/02/21 13:57:09;;;;;;;;;;;18.20;52.60;;;;;;4972216;28;20038;-54
2022/02/21 13:59:39;;;;;;;;;;;18.20;52.60;;;;;;4975381;28;19910;-52
2022/02/21 14:02:05;;;;;;;;;;;18.20;52.50;;;;;;4970826;28;20513;-55
2022/02/21 14:04:30;;;;;;;;;;;18.20;52.50;;;;;;4971553;28;19911;-56
2022/02/21 14:06:56;;;;;;;;;;;18.20;52.50;;;;;;4969663;28;20576;-52
2022/02/21 14:09:22;;;;;;;;;;;18.20;52.50;;;;;;4972148;28;19922;-52
2022/02/21 14:11:48;;;;;;;;;;;18.20;52.60;;;;;;4970877;28;19933;-57